Time;durP1;ratioP1;P1;durP2;ratioP2;P2;SDS_P1;SDS_P2;PMS_P1;PMS_P2;Temp;Humidity;BMP_temperature;BMP_pressure;BME280_temperature;BME280_humidity;BME280_pressure;Samples;Min_cycle;Max_cycle;Signal;HPM_P1;HPM_P2
2023/04/22 00:01:01;;;;;;;8.03;5.50;;;11.10;99.90;;;;;;5054936;28;20206;-49
2023/04/22 00:03:27;;;;;;;7.10;5.50;;;11.10;99.90;;;;;;5055114;28;20246;-49
2023/04/22 00:05:53;;;;;;;8.73;4.97;;;11.00;99.90;;;;;;5054792;28;20421;-49
2023/04/22 00:08:19;;;;;;;8.80;4.70;;;11.10;99.90;;;;;;5054053;28;20821;-48
2023/04/22 00:10:45;;;;;;;7.00;4.70;;;11.10;99.90;;;;;;5054228;28;20421;-49
2023/04/22 00:13:10;;;;;;;11.97;5.53;;;11.00;99.90;;;;;;5054667;28;20178;-49
2023/04/22 00:15:36;;;;;;;8.10;5.07;;;11.00;99.90;;;;;;5054599;28;20186;-49
2023/04/22 00:18:02;;;;;;;11.40;6.57;;;11.00;99.90;;;;;;5054394;28;20263;-49
2023/04/22 00:20:28;;;;;;;9.10;5.10;;;11.00;99.90;;;;;;5054926;28;20207;-49
2023/04/22 00:22:53;;;;;;;10.43;5.67;;;11.00;99.90;;;;;;5054549;28;20260;-49
2023/04/22 00:25:19;;;;;;;5.80;4.70;;;11.00;99.90;;;;;;5054307;28;20456;-49
2023/04/22 00:27:45;;;;;;;10.20;4.87;;;11.00;99.90;;;;;;5054728;28;20253;-49
2023/04/22 00:30:11;;;;;;;8.93;5.53;;;11.00;99.90;;;;;;5054526;28;20517;-49
2023/04/22 00:32:37;;;;;;;7.43;4.53;;;11.00;99.90;;;;;;5054250;28;20185;-49
2023/04/22 00:35:03;;;;;;;7.80;5.20;;;10.90;99.90;;;;;;5054268;28;20418;-49
2023/04/22 00:37:28;;;;;;;6.40;5.27;;;10.80;99.90;;;;;;5054595;28;20197;-49
2023/04/22 00:39:54;;;;;;;9.30;4.77;;;10.80;99.90;;;;;;5054567;28;20469;-49
2023/04/22 00:42:20;;;;;;;5.87;4.83;;;10.80;99.90;;;;;;5054374;28;20523;-49
2023/04/22 00:44:47;;;;;;;7.30;4.60;;;10.80;99.90;;;;;;5054495;28;20179;-49
2023/04/22 00:47:12;;;;;;;9.00;5.30;;;10.80;99.90;;;;;;5053870;28;20472;-49
2023/04/22 00:49:38;;;;;;;7.23;5.30;;;10.80;99.90;;;;;;5053869;28;20989;-49
2023/04/22 00:52:04;;;;;;;7.87;5.30;;;10.80;99.90;;;;;;5054020;28;20190;-49
2023/04/22 00:54:30;;;;;;;7.70;5.10;;;10.80;99.90;;;;;;5053632;28;20179;-49
2023/04/22 00:56:57;;;;;;;5.93;4.77;;;10.70;99.90;;;;;;5053717;28;20192;-49
2023/04/22 00:59:24;;;;;;;7.57;5.10;;;10.70;99.90;;;;;;5053853;28;20491;-48
2023/04/22 01:01:50;;;;;;;7.77;4.83;;;10.70;99.90;;;;;;5053917;28;20409;-49
2023/04/22 01:04:16;;;;;;;9.83;5.50;;;10.60;99.90;;;;;;5054066;28;20516;-49
2023/04/22 01:06:42;;;;;;;11.27;5.03;;;10.50;99.90;;;;;;5053867;28;20460;-49
2023/04/22 01:09:08;;;;;;;7.73;4.43;;;10.50;99.90;;;;;;5053831;28;20184;-49
2023/04/22 01:11:35;;;;;;;5.40;4.90;;;10.50;99.90;;;;;;5053757;28;20777;-49
2023/04/22 01:14:02;;;;;;;7.20;5.30;;;10.40;99.90;;;;;;5053780;28;20187;-49
2023/04/22 01:16:29;;;;;;;6.40;5.70;;;10.40;99.90;;;;;;5053795;28;20413;-49
2023/04/22 01:18:55;;;;;;;7.30;5.03;;;10.40;99.90;;;;;;5053675;28;20427;-49
2023/04/22 01:21:21;;;;;;;7.17;5.50;;;10.30;99.90;;;;;;5057110;28;20464;-49
2023/04/22 01:23:47;;;;;;;8.30;5.47;;;10.30;99.90;;;;;;5057861;28;20180;-49
2023/04/22 01:26:13;;;;;;;8.93;5.50;;;10.30;99.90;;;;;;5057714;28;20193;-49
2023/04/22 01:28:39;;;;;;;6.73;5.03;;;10.20;99.90;;;;;;5058034;28;20413;-49
2023/04/22 01:31:05;;;;;;;7.50;5.27;;;10.20;99.90;;;;;;5057377;28;20193;-49
2023/04/22 01:33:30;;;;;;;8.93;4.93;;;10.20;99.90;;;;;;5057638;28;20265;-49
2023/04/22 01:35:56;;;;;;;7.10;5.53;;;10.20;99.90;;;;;;5057646;28;20564;-49
2023/04/22 01:38:22;;;;;;;7.20;5.30;;;10.10;1.00;;;;;;5057542;28;20180;-49
2023/04/22 01:40:48;;;;;;;6.20;5.60;;;10.10;99.90;;;;;;5057594;28;20260;-49
2023/04/22 01:43:14;;;;;;;7.17;5.53;;;10.10;99.90;;;;;;5057677;28;20425;-49
2023/04/22 01:45:39;;;;;;;7.40;5.00;;;10.20;99.90;;;;;;5057723;28;20414;-49
2023/04/22 01:48:05;;;;;;;8.07;5.50;;;10.10;99.90;;;;;;5057162;28;20246;-49
2023/04/22 01:50:32;;;;;;;8.97;6.33;;;10.10;99.90;;;;;;5057738;28;20194;-49
2023/04/22 01:52:58;;;;;;;7.27;5.67;;;10.00;99.90;;;;;;5057238;28;20419;-49
2023/04/22 01:55:24;;;;;;;8.07;5.57;;;10.00;99.90;;;;;;5057315;28;20422;-48
2023/04/22 01:57:49;;;;;;;7.40;5.73;;;10.00;99.90;;;;;;5057301;28;20414;-49
2023/04/22 02:00:15;;;;;;;8.20;6.10;;;10.00;99.90;;;;;;5057313;28;20207;-49
2023/04/22 02:02:40;;;;;;;9.10;5.83;;;10.00;99.90;;;;;;5057138;28;20190;-49
2023/04/22 02:05:07;;;;;;;8.07;5.70;;;10.00;99.90;;;;;;5056536;28;20190;-49
2023/04/22 02:07:32;;;;;;;9.03;6.40;;;9.90;99.90;;;;;;5057332;28;20198;-49
2023/04/22 02:09:58;;;;;;;7.53;6.33;;;10.00;99.90;;;;;;5056767;28;20761;-48
2023/04/22 02:12:24;;;;;;;7.23;6.27;;;10.00;99.90;;;;;;5056595;28;20180;-49
2023/04/22 02:14:49;;;;;;;7.57;6.30;;;9.90;99.90;;;;;;5056845;28;20190;-49
2023/04/22 02:17:16;;;;;;;6.30;5.70;;;9.90;1.00;;;;;;5056708;28;20202;-49
2023/04/22 02:19:42;;;;;;;10.13;6.57;;;10.10;99.90;;;;;;5056466;28;20237;-49
2023/04/22 02:22:09;;;;;;;9.00;6.23;;;10.10;99.90;;;;;;5056938;28;20886;-49
2023/04/22 02:24:35;;;;;;;8.60;6.40;;;10.20;99.90;;;;;;5056735;28;20555;-49
2023/04/22 02:27:00;;;;;;;10.90;6.67;;;10.20;99.90;;;;;;5056651;28;20510;-49
2023/04/22 02:29:26;;;;;;;8.90;6.50;;;10.20;99.90;;;;;;5056605;28;20228;-49
2023/04/22 02:31:52;;;;;;;9.83;6.93;;;10.10;1.00;;;;;;5055579;28;20232;-49
2023/04/22 02:34:18;;;;;;;8.20;6.60;;;10.10;99.90;;;;;;5056223;28;20416;-49
2023/04/22 02:36:43;;;;;;;8.80;7.03;;;10.10;99.90;;;;;;5056180;28;20175;-49
2023/04/22 02:39:09;;;;;;;8.37;6.73;;;10.20;99.90;;;;;;5056634;28;20185;-49
2023/04/22 02:41:34;;;;;;;11.40;7.00;;;10.30;99.90;;;;;;5056282;28;20237;-49
2023/04/22 02:44:00;;;;;;;11.97;6.73;;;10.20;99.90;;;;;;5056160;28;20179;-49
2023/04/22 02:46:26;;;;;;;9.03;6.83;;;10.20;99.90;;;;;;5056367;28;20184;-49
2023/04/22 02:48:51;;;;;;;11.60;7.20;;;10.20;99.90;;;;;;5055922;28;20300;-49
2023/04/22 02:51:17;;;;;;;9.20;6.13;;;10.20;99.90;;;;;;5056201;28;20193;-49
2023/04/22 02:53:43;;;;;;;7.40;6.60;;;10.20;99.90;;;;;;5056198;28;20563;-49
2023/04/22 02:56:08;;;;;;;12.73;7.30;;;10.20;99.90;;;;;;5056078;28;20350;-49
2023/04/22 02:58:34;;;;;;;9.00;6.30;;;10.10;99.90;;;;;;5056048;28;20599;-48
2023/04/22 03:01:00;;;;;;;9.60;7.27;;;10.10;99.90;;;;;;5056119;28;20301;-49
2023/04/22 03:03:26;;;;;;;10.27;6.93;;;9.90;99.90;;;;;;5055929;28;20186;-49
2023/04/22 03:05:51;;;;;;;10.20;7.20;;;9.90;99.90;;;;;;5056338;28;20445;-49
2023/04/22 03:08:18;;;;;;;11.07;7.10;;;9.90;99.90;;;;;;5056109;28;20185;-49
2023/04/22 03:10:44;;;;;;;10.13;7.30;;;9.80;99.90;;;;;;5055773;28;20588;-49
2023/04/22 03:13:11;;;;;;;9.23;7.53;;;9.90;99.90;;;;;;5055325;28;20456;-49
2023/04/22 03:15:38;;;;;;;9.80;7.93;;;9.90;99.90;;;;;;5055379;28;20187;-49
2023/04/22 03:18:04;;;;;;;22.33;9.30;;;9.90;99.90;;;;;;5055671;28;20424;-49
2023/04/22 03:20:30;;;;;;;12.20;7.90;;;10.00;99.90;;;;;;5055886;28;20460;-49
2023/04/22 03:22:55;;;;;;;11.70;7.50;;;10.00;99.90;;;;;;5055427;28;20175;-49
2023/04/22 03:25:21;;;;;;;15.40;8.30;;;9.90;99.90;;;;;;5055280;28;20621;-49
2023/04/22 03:27:47;;;;;;;12.00;7.67;;;10.00;99.90;;;;;;5055252;28;20183;-49
2023/04/22 03:30:12;;;;;;;12.17;7.40;;;9.90;99.90;;;;;;5055509;28;20195;-49
2023/04/22 03:32:38;;;;;;;9.47;7.23;;;9.90;99.90;;;;;;5055448;28;20570;-49
2023/04/22 03:35:04;;;;;;;12.23;7.40;;;9.90;99.90;;;;;;5054909;28;20243;-49
2023/04/22 03:37:29;;;;;;;12.83;7.60;;;9.90;99.90;;;;;;5055008;28;20233;-49
2023/04/22 03:39:55;;;;;;;12.03;8.23;;;9.80;99.90;;;;;;5054841;28;20558;-49
2023/04/22 03:42:20;;;;;;;9.60;7.10;;;9.70;99.90;;;;;;5054525;28;20175;-49
2023/04/22 03:44:46;;;;;;;11.07;7.70;;;9.60;99.90;;;;;;5054390;28;20214;-49
2023/04/22 03:47:12;;;;;;;12.30;8.07;;;9.60;99.90;;;;;;5054534;28;20248;-49
2023/04/22 03:49:37;;;;;;;10.33;8.10;;;9.60;99.90;;;;;;5054441;28;20180;-49
2023/04/22 03:52:03;;;;;;;13.70;8.77;;;9.60;99.90;;;;;;5054438;28;20186;-49
2023/04/22 03:54:29;;;;;;;10.20;7.83;;;9.60;99.90;;;;;;5054309;28;20186;-49
2023/04/22 03:56:54;;;;;;;10.77;7.90;;;9.70;99.90;;;;;;5054631;28;20179;-49
2023/04/22 03:59:20;;;;;;;13.50;7.87;;;9.60;99.90;;;;;;5054458;28;20209;-49
2023/04/22 04:01:46;;;;;;;11.33;7.80;;;9.70;99.90;;;;;;5054513;28;20209;-48
2023/04/22 04:04:12;;;;;;;10.03;8.60;;;9.70;99.90;;;;;;5054438;28;20277;-49
2023/04/22 04:06:38;;;;;;;12.63;8.40;;;9.70;99.90;;;;;;5054347;28;20508;-49
2023/04/22 04:09:04;;;;;;;15.20;8.80;;;9.60;99.90;;;;;;5054220;28;20187;-49
2023/04/22 04:11:30;;;;;;;13.53;8.60;;;9.70;99.90;;;;;;5053976;28;20870;-49
2023/04/22 04:13:55;;;;;;;10.60;8.43;;;9.80;1.00;;;;;;5053977;28;20502;-49
2023/04/22 04:16:21;;;;;;;12.93;8.70;;;9.80;1.00;;;;;;5038536;28;20262;-48
2023/04/22 04:18:50;;;;;;;12.60;8.30;;;9.80;99.90;;;;;;5034607;28;20697;-48
2023/04/22 04:21:15;;;;;;;11.00;8.43;;;9.80;1.00;;;;;;5034534;28;20242;-49
2023/04/22 04:23:41;;;;;;;12.20;8.40;;;9.80;1.00;;;;;;5041983;28;20452;-49
2023/04/22 04:26:07;;;;;;;12.10;8.70;;;9.80;1.00;;;;;;5054555;28;20611;-49
2023/04/22 04:28:34;;;;;;;12.13;8.63;;;9.90;1.00;;;;;;5054696;28;20262;-49
2023/04/22 04:31:01;;;;;;;12.30;8.63;;;9.90;1.00;;;;;;5053764;28;20273;-49
2023/04/22 04:33:31;;;;;;;12.20;8.80;;;9.90;1.00;;;;;;5054672;28;20440;-49
2023/04/22 04:35:58;;;;;;;12.90;8.87;;;10.00;1.00;;;;;;5054239;28;20456;-49
2023/04/22 04:38:24;;;;;;;11.07;8.60;;;10.10;1.00;;;;;;5054258;28;20479;-49
2023/04/22 04:40:50;;;;;;;15.00;9.07;;;10.10;99.90;;;;;;5054167;28;20840;-49
2023/04/22 04:43:15;;;;;;;12.47;8.37;;;10.20;99.90;;;;;;5054376;28;20418;-49
2023/04/22 04:45:45;;;;;;;13.50;8.97;;;10.20;1.00;;;;;;5054103;28;20768;-49
2023/04/22 04:48:12;;;;;;;11.23;8.67;;;10.10;1.00;;;;;;5054004;28;20242;-48
2023/04/22 04:50:37;;;;;;;12.47;8.37;;;10.20;1.00;;;;;;5054041;28;20815;-49
2023/04/22 04:53:03;;;;;;;12.53;8.70;;;10.10;1.00;;;;;;5053966;28;20478;-49
2023/04/22 04:55:29;;;;;;;10.57;8.70;;;10.30;1.00;;;;;;5053363;28;20214;-49
2023/04/22 04:57:54;;;;;;;14.43;8.67;;;10.30;1.00;;;;;;5053693;28;20269;-48
2023/04/22 05:00:20;;;;;;;12.47;9.23;;;10.40;1.00;;;;;;5053580;28;20206;-49
2023/04/22 05:02:46;;;;;;;14.50;8.73;;;10.40;1.00;;;;;;5053916;28;20214;-49
2023/04/22 05:05:11;;;;;;;12.53;8.97;;;10.40;1.00;;;;;;5053725;28;20228;-49
2023/04/22 05:07:37;;;;;;;12.23;8.97;;;10.40;1.00;;;;;;5053936;28;20170;-49
2023/04/22 05:10:03;;;;;;;11.10;9.23;;;10.40;1.00;;;;;;5053821;28;20182;-49
2023/04/22 05:12:28;;;;;;;10.17;8.93;;;10.60;1.00;;;;;;5053778;28;20261;-48
2023/04/22 05:14:54;;;;;;;10.33;8.70;;;10.60;1.00;;;;;;5053885;28;20435;-48
2023/04/22 05:17:20;;;;;;;15.63;9.57;;;10.80;1.00;;;;;;5053522;28;20186;-49
2023/04/22 05:19:45;;;;;;;12.67;9.20;;;10.80;1.00;;;;;;5053406;28;20268;-49
2023/04/22 05:22:11;;;;;;;13.07;9.40;;;10.80;1.00;;;;;;5053909;28;20266;-49
2023/04/22 05:24:36;;;;;;;13.33;9.50;;;10.80;1.00;;;;;;5054039;28;20534;-49
2023/04/22 05:27:02;;;;;;;21.10;10.80;;;10.90;1.00;;;;;;5053810;28;20193;-49
2023/04/22 05:29:28;;;;;;;12.10;9.40;;;11.10;99.90;;;;;;5053935;28;20185;-49
2023/04/22 05:31:53;;;;;;;14.00;10.00;;;11.20;1.00;;;;;;5054087;28;20288;-49
2023/04/22 05:34:19;;;;;;;13.73;9.70;;;11.30;1.00;;;;;;5053322;28;20185;-49
2023/04/22 05:36:45;;;;;;;13.13;10.10;;;11.30;99.90;;;;;;5053567;28;20639;-49
2023/04/22 05:39:11;;;;;;;13.50;9.80;;;11.40;99.90;;;;;;5053547;28;20259;-49
2023/04/22 05:41:37;;;;;;;15.07;10.57;;;11.50;99.90;;;;;;5053387;28;20210;-49
2023/04/22 05:44:02;;;;;;;14.00;10.50;;;11.60;99.90;;;;;;5053643;28;20961;-49
2023/04/22 05:46:28;;;;;;;15.13;10.00;;;11.60;99.90;;;;;;5053811;28;20279;-49
2023/04/22 05:48:54;;;;;;;11.57;9.70;;;11.90;99.90;;;;;;5053327;28;20265;-49
2023/04/22 05:51:22;;;;;;;11.83;9.50;;;12.00;99.90;;;;;;5053359;28;20195;-49
2023/04/22 05:53:48;;;;;;;12.20;9.80;;;12.20;99.90;;;;;;5053476;28;20762;-49
2023/04/22 05:56:13;;;;;;;12.53;9.50;;;12.40;99.90;;;;;;5053408;28;20409;-49
2023/04/22 05:58:39;;;;;;;11.70;9.33;;;12.60;99.90;;;;;;5053250;28;20224;-49
2023/04/22 06:01:05;;;;;;;15.83;10.70;;;12.70;99.90;;;;;;5052970;28;20211;-49
2023/04/22 06:03:30;;;;;;;13.57;9.90;;;12.90;99.90;;;;;;5053624;28;20216;-49
2023/04/22 06:05:56;;;;;;;15.30;10.63;;;13.10;99.90;;;;;;5054499;28;20209;-49
2023/04/22 06:08:22;;;;;;;16.80;9.90;;;13.20;99.90;;;;;;5057335;28;20217;-49
2023/04/22 06:10:48;;;;;;;11.87;10.03;;;13.50;99.90;;;;;;5057070;28;20183;-49
2023/04/22 06:13:14;;;;;;;14.53;9.60;;;13.60;99.90;;;;;;5057205;28;20183;-49
2023/04/22 06:15:39;;;;;;;12.37;9.60;;;13.60;99.90;;;;;;5056635;28;20510;-49
2023/04/22 06:18:05;;;;;;;17.20;10.07;;;13.60;99.90;;;;;;5056868;28;20189;-49
2023/04/22 06:20:34;;;;;;;12.23;9.90;;;13.70;99.90;;;;;;5056425;28;20217;-49
2023/04/22 06:23:00;;;;;;;14.40;9.60;;;13.90;99.90;;;;;;5056756;28;20190;-49
2023/04/22 06:25:26;;;;;;;13.10;9.80;;;14.10;99.90;;;;;;5056693;28;20421;-49
2023/04/22 06:27:52;;;;;;;11.37;9.20;;;14.20;99.90;;;;;;5056444;28;20490;-49
2023/04/22 06:30:18;;;;;;;16.20;10.70;;;14.40;99.90;;;;;;5056637;28;20646;-49
2023/04/22 06:32:43;;;;;;;14.10;10.37;;;14.50;99.90;;;;;;5056536;28;20183;-49
2023/04/22 06:35:09;;;;;;;12.50;9.80;;;14.70;99.90;;;;;;5056319;28;20185;-49
2023/04/22 06:37:35;;;;;;;22.70;10.40;;;14.80;99.90;;;;;;5056459;28;20186;-49
2023/04/22 06:40:01;;;;;;;13.80;10.40;;;14.90;99.90;;;;;;5056175;28;20305;-49
2023/04/22 06:42:26;;;;;;;12.93;10.03;;;14.90;99.90;;;;;;5056402;28;20440;-50
2023/04/22 06:44:52;;;;;;;11.43;10.07;;;15.00;99.90;;;;;;5056360;28;20231;-49
2023/04/22 06:47:18;;;;;;;15.10;10.40;;;15.20;99.90;;;;;;5056214;28;20308;-49
2023/04/22 06:49:44;;;;;;;15.07;10.83;;;15.40;99.90;;;;;;5056589;28;20183;-49
2023/04/22 06:52:09;;;;;;;13.30;10.70;;;15.50;99.90;;;;;;5056078;28;20267;-49
2023/04/22 06:54:37;;;;;;;15.70;9.93;;;15.60;99.90;;;;;;5055797;28;20897;-49
2023/04/22 06:57:02;;;;;;;13.40;10.53;;;15.90;99.90;;;;;;5055829;28;20563;-48
2023/04/22 06:59:28;;;;;;;14.30;10.30;;;16.10;99.90;;;;;;5055700;28;20426;-49
2023/04/22 07:01:54;;;;;;;13.70;10.53;;;16.10;99.90;;;;;;5055803;28;20210;-49
2023/04/22 07:04:19;;;;;;;12.60;9.93;;;16.30;99.90;;;;;;5056259;28;20185;-49
2023/04/22 07:06:45;;;;;;;12.90;10.63;;;16.40;99.90;;;;;;5056186;28;20208;-49
2023/04/22 07:09:11;;;;;;;12.77;9.83;;;16.40;99.90;;;;;;5056046;28;20277;-50
2023/04/22 07:11:36;;;;;;;13.70;10.20;;;16.60;99.90;;;;;;5056242;28;20188;-49
2023/04/22 07:14:02;;;;;;;14.63;10.83;;;16.60;1.00;;;;;;5055629;28;20650;-49
2023/04/22 07:16:27;;;;;;;15.73;11.20;;;16.80;99.90;;;;;;5056094;28;20181;-49
2023/04/22 07:18:53;;;;;;;12.67;9.87;;;17.10;99.90;;;;;;5055167;28;20281;-50
2023/04/22 07:21:19;;;;;;;11.60;10.00;;;17.30;99.90;;;;;;5055197;28;20212;-49
2023/04/22 07:23:45;;;;;;;14.00;10.00;;;17.60;99.90;;;;;;5055938;28;20185;-49
2023/04/22 07:26:10;;;;;;;12.17;10.50;;;17.80;99.90;;;;;;5055523;28;20183;-49
2023/04/22 07:28:36;;;;;;;12.87;9.37;;;17.60;99.90;;;;;;5055265;28;20190;-49
2023/04/22 07:31:02;;;;;;;14.37;10.57;;;17.70;99.90;;;;;;5055242;28;20529;-50
2023/04/22 07:33:27;;;;;;;13.50;9.90;;;18.00;99.90;;;;;;5055627;28;20186;-50
2023/04/22 07:35:53;;;;;;;11.47;10.27;;;18.10;99.90;;;;;;5055376;28;20533;-50
2023/04/22 07:38:19;;;;;;;11.77;10.03;;;18.40;99.90;;;;;;5055328;28;20186;-50
2023/04/22 07:40:44;;;;;;;13.47;9.67;;;18.40;99.90;;;;;;5054911;28;20216;-50
2023/04/22 07:43:10;;;;;;;12.90;9.97;;;18.50;99.90;;;;;;5054909;28;20184;-50
2023/04/22 07:45:36;;;;;;;14.10;10.17;;;18.70;99.90;;;;;;5055160;28;20208;-50
2023/04/22 07:48:03;;;;;;;12.10;10.33;;;18.90;99.90;;;;;;5054513;28;20271;-50
2023/04/22 07:50:28;;;;;;;13.27;10.30;;;19.30;99.90;;;;;;5055080;28;20181;-50
2023/04/22 07:52:54;;;;;;;14.83;9.40;;;19.70;99.90;;;;;;5054543;28;20423;-50
2023/04/22 07:55:20;;;;;;;14.90;10.30;;;19.80;99.90;;;;;;5054966;28;20189;-50
2023/04/22 07:57:45;;;;;;;13.20;10.50;;;20.00;99.90;;;;;;5054624;28;20194;-51
2023/04/22 08:00:12;;;;;;;16.60;9.60;;;20.30;99.90;;;;;;5054703;28;20217;-51
2023/04/22 08:02:37;;;;;;;12.73;9.30;;;20.40;99.90;;;;;;5054911;28;20209;-51
2023/04/22 08:05:03;;;;;;;12.80;10.40;;;20.50;99.90;;;;;;5054641;28;20459;-52
2023/04/22 08:07:29;;;;;;;16.40;9.60;;;20.70;99.90;;;;;;5055302;28;20197;-50
2023/04/22 08:09:55;;;;;;;11.80;10.00;;;20.90;99.90;;;;;;5054467;28;20186;-52
2023/04/22 08:12:21;;;;;;;12.63;9.07;;;20.80;99.90;;;;;;5054629;28;20610;-52
2023/04/22 08:14:47;;;;;;;10.50;9.40;;;20.90;99.90;;;;;;5054898;28;20415;-53
2023/04/22 08:17:12;;;;;;;12.00;9.33;;;21.10;99.90;;;;;;5054737;28;20417;-51
2023/04/22 08:19:38;;;;;;;16.50;10.07;;;21.40;99.90;;;;;;5054447;28;20254;-52
2023/04/22 08:22:03;;;;;;;16.33;10.40;;;21.40;99.90;;;;;;5054414;28;20538;-52
2023/04/22 08:24:29;;;;;;;11.50;9.43;;;21.50;99.90;;;;;;5054750;28;20193;-52
2023/04/22 08:26:55;;;;;;;18.07;9.00;;;21.60;99.90;;;;;;5054183;28;20193;-52
2023/04/22 08:29:21;;;;;;;13.80;9.30;;;21.60;99.90;;;;;;5053871;28;20188;-51
2023/04/22 08:31:46;;;;;;;14.27;9.23;;;21.80;99.90;;;;;;5054298;28;20432;-52
2023/04/22 08:34:12;;;;;;;11.07;9.03;;;22.20;99.90;;;;;;5054181;28;20185;-51
2023/04/22 08:36:37;;;;;;;12.93;9.17;;;22.30;99.90;;;;;;5054173;28;20276;-52
2023/04/22 08:39:03;;;;;;;11.20;9.40;;;22.60;99.90;;;;;;5054179;28;20193;-52
2023/04/22 08:41:32;;;;;;;11.43;9.40;;;22.90;99.90;;;;;;5053910;28;20602;-51
2023/04/22 08:43:58;;;;;;;13.97;9.23;;;23.20;99.90;;;;;;5054231;28;20185;-52
2023/04/22 08:46:25;;;;;;;12.77;9.07;;;23.60;99.90;;;;;;5054067;28;20426;-52
2023/04/22 08:48:52;;;;;;;11.83;8.83;;;23.50;99.90;;;;;;5053735;28;20327;-52
2023/04/22 08:51:18;;;;;;;12.47;9.60;;;23.40;99.90;;;;;;5053870;28;20430;-51
2023/04/22 08:53:44;;;;;;;10.33;9.23;;;22.70;99.90;;;;;;5054015;28;20419;-51
2023/04/22 08:56:14;;;;;;;17.77;9.23;;;22.20;99.90;;;;;;5053710;28;20189;-52
2023/04/22 08:58:43;;;;;;;11.60;9.90;;;22.30;99.90;;;;;;5053869;28;20251;-52
2023/04/22 09:01:09;;;;;;;13.40;9.87;;;22.40;99.90;;;;;;5053787;28;20460;-52
2023/04/22 09:03:37;;;;;;;14.53;9.50;;;22.20;99.90;;;;;;5053513;28;20427;-52
2023/04/22 09:06:03;;;;;;;11.80;9.20;;;22.30;99.90;;;;;;5053525;28;20919;-52
2023/04/22 09:08:30;;;;;;;10.17;9.07;;;22.40;99.90;;;;;;5053670;28;20904;-53
2023/04/22 09:10:57;;;;;;;13.33;10.33;;;22.50;99.90;;;;;;5053940;28;20416;-52
2023/04/22 09:13:25;;;;;;;16.03;10.03;;;22.70;99.90;;;;;;5053696;28;20423;-53
2023/04/22 09:15:51;;;;;;;19.37;9.37;;;22.70;99.90;;;;;;5053777;28;20416;-53
2023/04/22 09:18:18;;;;;;;12.83;8.50;;;22.70;99.90;;;;;;5053500;28;21003;-53
2023/04/22 09:20:46;;;;;;;12.20;9.70;;;22.90;99.90;;;;;;5053657;28;20255;-52
2023/04/22 09:23:12;;;;;;;13.40;9.17;;;23.20;99.90;;;;;;5053671;28;20420;-53
2023/04/22 09:25:39;;;;;;;14.30;8.93;;;23.40;99.90;;;;;;5053984;28;20468;-53
2023/04/22 09:28:05;;;;;;;12.57;8.27;;;23.60;99.90;;;;;;5053770;28;20428;-53
2023/04/22 09:30:38;;;;;;;17.33;9.60;;;23.80;99.90;;;;;;5053922;28;20418;-53
2023/04/22 09:33:05;;;;;;;11.27;8.57;;;24.00;99.90;;;;;;5053634;28;20579;-52
2023/04/22 09:35:39;;;;;;;12.60;8.47;;;23.80;99.90;;;;;;5053636;28;20512;-53
2023/04/22 09:38:07;;;;;;;11.13;8.17;;;23.30;99.90;;;;;;5053536;28;20418;-52
2023/04/22 09:40:34;;;;;;;9.77;8.27;;;23.10;99.90;;;;;;5053566;28;20789;-52
2023/04/22 09:43:02;;;;;;;9.23;8.20;;;22.80;99.90;;;;;;5057673;28;20431;-52
2023/04/22 09:45:31;;;;;;;9.10;7.50;;;22.60;99.90;;;;;;5057322;28;20513;-53
2023/04/22 09:48:09;;;;;;;10.50;8.30;;;22.20;99.90;;;;;;5057494;28;20476;-53
2023/04/22 09:50:36;;;;;;;10.53;7.43;;;22.00;99.90;;;;;;5057726;28;20405;-54
2023/04/22 09:53:08;;;;;;;12.30;8.50;;;22.10;99.90;;;;;;5057562;28;20470;-52
2023/04/22 09:55:37;;;;;;;9.73;7.47;;;22.20;99.90;;;;;;5057290;28;20811;-53
2023/04/22 09:58:17;;;;;;;7.77;7.07;;;22.30;99.90;;;;;;5057341;28;20419;-52
2023/04/22 10:00:51;;;;;;;7.13;6.43;;;22.10;99.90;;;;;;5056858;28;20983;-53
2023/04/22 10:03:17;;;;;;;10.53;7.20;;;22.30;99.90;;;;;;5057031;28;20416;-52
2023/04/22 10:05:44;;;;;;;11.03;7.50;;;22.70;99.90;;;;;;5057282;28;20471;-52
2023/04/22 10:08:12;;;;;;;13.20;7.30;;;23.20;99.90;;;;;;5057111;28;20420;-52
2023/04/22 10:10:38;;;;;;;13.23;7.23;;;23.40;99.90;;;;;;5057341;28;20503;-52
2023/04/22 10:13:05;;;;;;;11.03;7.53;;;23.60;99.90;;;;;;5056993;28;20813;-52
2023/04/22 10:15:51;;;;;;;8.77;7.50;;;23.80;99.90;;;;;;5056930;28;20892;-52
2023/04/22 10:18:25;;;;;;;13.17;7.10;;;24.20;99.90;;;;;;5056451;28;20961;-52
2023/04/22 10:20:53;;;;;;;11.50;7.93;;;24.20;99.90;;;;;;5056711;28;20466;-52
2023/04/22 10:23:21;;;;;;;9.77;7.00;;;24.20;99.90;;;;;;5056640;28;20441;-50
2023/04/22 10:25:48;;;;;;;10.57;7.03;;;24.50;99.90;;;;;;5056644;28;20427;-50
2023/04/22 10:28:16;;;;;;;10.10;7.43;;;24.90;99.90;;;;;;5056890;28;20776;-50
2023/04/22 10:30:41;;;;;;;8.40;6.93;;;24.80;99.90;;;;;;5056924;28;20814;-51
2023/04/22 10:33:22;;;;;;;8.70;7.17;;;25.10;99.90;;;;;;5056488;28;20420;-51
2023/04/22 10:36:16;;;;;;;8.30;6.27;;;25.60;99.90;;;;;;5056513;28;20185;-51
2023/04/22 10:38:54;;;;;;;11.30;6.83;;;25.40;99.90;;;;;;5056493;28;20435;-51
2023/04/22 10:41:29;;;;;;;9.43;6.43;;;25.30;99.90;;;;;;5056050;28;20495;-51
2023/04/22 10:43:59;;;;;;;6.50;5.90;;;25.90;99.90;;;;;;5056380;28;20807;-51
2023/04/22 10:46:31;;;;;;;8.50;6.13;;;26.30;99.90;;;;;;5056252;28;20818;-51
2023/04/22 10:49:14;;;;;;;10.30;5.70;;;26.40;99.90;;;;;;5055926;28;20606;-51
2023/04/22 10:51:45;;;;;;;9.23;5.90;;;26.50;99.90;;;;;;5056468;28;20436;-51
2023/04/22 10:54:26;;;;;;;8.73;6.47;;;26.60;99.90;;;;;;5055065;28;20905;-52
2023/04/22 10:57:06;;;;;;;8.87;7.00;;;27.00;99.90;;;;;;5056154;28;20500;-51
2023/04/22 10:59:40;;;;;;;6.30;5.70;;;27.00;99.90;;;;;;5056054;28;20486;-51
2023/04/22 11:02:07;;;;;;;9.33;6.30;;;26.50;99.90;;;;;;5055984;28;20420;-52
2023/04/22 11:04:34;;;;;;;6.70;5.90;;;26.60;99.90;;;;;;5055686;28;20422;-51
2023/04/22 11:07:30;;;;;;;10.40;6.30;;;27.00;99.90;;;;;;5055759;28;20429;-52
2023/04/22 11:10:32;;;;;;;8.97;5.87;;;27.70;99.90;;;;;;5056064;28;20416;-51
2023/04/22 11:13:00;;;;;;;8.93;6.40;;;27.80;99.90;;;;;;5055959;28;20496;-50
2023/04/22 11:15:29;;;;;;;6.80;5.60;;;27.80;99.90;;;;;;5056012;28;20414;-50
2023/04/22 11:17:55;;;;;;;7.43;5.77;;;28.00;99.90;;;;;;5055675;28;20429;-50
2023/04/22 11:20:21;;;;;;;6.83;5.90;;;28.20;99.90;;;;;;5055581;28;20465;-50
2023/04/22 11:22:49;;;;;;;7.70;5.83;;;28.40;99.90;;;;;;5055665;28;20539;-52
2023/04/22 11:25:15;;;;;;;11.90;6.67;;;28.10;99.90;;;;;;5055786;28;20418;-52
2023/04/22 11:27:44;;;;;;;8.33;6.13;;;28.00;99.90;;;;;;5055489;28;20463;-52
2023/04/22 11:30:15;;;;;;;6.97;6.10;;;28.00;99.90;;;;;;5055658;28;20195;-50
2023/04/22 11:32:43;;;;;;;6.03;5.37;;;28.10;99.90;;;;;;5055149;28;20438;-50
2023/04/22 11:35:12;;;;;;;7.10;6.20;;;28.10;99.90;;;;;;5055123;28;20486;-50
2023/04/22 11:37:41;;;;;;;10.37;6.10;;;28.30;99.90;;;;;;5054890;28;20426;-50
2023/04/22 11:40:13;;;;;;;7.30;5.60;;;28.40;99.90;;;;;;5054875;28;21052;-50
2023/04/22 11:42:39;;;;;;;7.90;6.00;;;28.60;99.90;;;;;;5055258;28;20413;-50
2023/04/22 11:45:06;;;;;;;8.87;5.53;;;28.70;99.90;;;;;;5055055;28;20418;-50
2023/04/22 11:47:33;;;;;;;6.53;5.07;;;28.70;99.90;;;;;;5054582;28;20238;-50
2023/04/22 11:50:03;;;;;;;5.93;4.83;;;28.40;99.90;;;;;;5055169;28;20521;-50
2023/04/22 11:52:47;;;;;;;8.60;5.00;;;28.50;99.90;;;;;;5055302;28;20406;-51
2023/04/22 11:55:15;;;;;;;7.30;5.70;;;28.80;99.90;;;;;;5054628;28;20429;-50
2023/04/22 11:57:41;;;;;;;8.33;5.90;;;28.90;99.90;;;;;;5054636;28;20943;-51
2023/04/22 12:00:12;;;;;;;5.70;5.17;;;28.90;99.90;;;;;;5054872;28;20461;-51
2023/04/22 12:02:38;;;;;;;6.73;5.50;;;29.00;99.90;;;;;;5054772;28;20406;-50
2023/04/22 12:05:07;;;;;;;7.23;5.77;;;29.00;99.90;;;;;;5054692;28;20421;-51
2023/04/22 12:07:33;;;;;;;7.10;5.87;;;29.30;99.90;;;;;;5054479;28;20178;-51
2023/04/22 12:10:00;;;;;;;5.80;5.30;;;28.90;99.90;;;;;;5054748;28;20766;-51
2023/04/22 12:12:26;;;;;;;6.70;5.50;;;28.90;99.90;;;;;;5054633;28;20198;-50
2023/04/22 12:14:52;;;;;;;6.20;5.60;;;29.10;99.90;;;;;;5054703;28;20417;-51
2023/04/22 12:17:24;;;;;;;6.90;5.47;;;29.40;99.90;;;;;;5054594;28;20428;-51
2023/04/22 12:19:56;;;;;;;6.17;5.60;;;29.60;99.90;;;;;;5054707;28;20249;-51
2023/04/22 12:22:29;;;;;;;8.87;5.73;;;29.30;99.90;;;;;;5054454;28;20417;-51
2023/04/22 12:24:58;;;;;;;6.57;5.43;;;28.60;99.90;;;;;;5054137;28;20902;-51
2023/04/22 12:27:24;;;;;;;8.73;5.80;;;28.50;99.90;;;;;;5054596;28;20504;-51
2023/04/22 12:29:54;;;;;;;6.57;5.40;;;28.30;99.90;;;;;;5054731;28;20530;-51
2023/04/22 12:32:21;;;;;;;7.63;5.53;;;28.10;99.90;;;;;;5054268;28;20184;-50
2023/04/22 12:34:47;;;;;;;8.13;6.10;;;27.90;99.90;;;;;;5054715;28;20496;-50
2023/04/22 12:37:13;;;;;;;5.97;5.37;;;27.80;99.90;;;;;;5054077;28;20433;-50
2023/04/22 12:39:39;;;;;;;6.50;5.43;;;27.80;99.90;;;;;;5053730;28;20424;-50